createdAt,value
2023-05-22T00:01:56.713Z,85.80
2023-05-22T00:04:23.823Z,86.00
2023-05-22T00:06:50.769Z,87.10
2023-05-22T00:09:17.877Z,87.40
2023-05-22T00:11:44.912Z,86.90
2023-05-22T00:14:13.657Z,86.70
2023-05-22T00:16:41.353Z,87.30
2023-05-22T00:19:13.739Z,87.10
2023-05-22T00:21:40.933Z,86.60
2023-05-22T00:24:08.125Z,86.60
2023-05-22T00:26:35.085Z,86.60
2023-05-22T00:29:02.293Z,87.30
2023-05-22T00:31:29.322Z,87.00
2023-05-22T00:33:56.385Z,87.00
2023-05-22T00:36:23.334Z,86.20
2023-05-22T00:38:50.180Z,86.80
2023-05-22T00:41:17.057Z,87.30
2023-05-22T00:43:45.544Z,87.40
2023-05-22T00:46:12.675Z,87.60
2023-05-22T00:48:39.755Z,87.60
2023-05-22T00:51:08.105Z,87.30
2023-05-22T00:53:35.238Z,87.20
2023-05-22T00:56:02.846Z,86.60
2023-05-22T00:58:30.629Z,86.50
2023-05-22T01:00:57.549Z,86.80
2023-05-22T01:03:26.980Z,86.70
2023-05-22T01:05:57.885Z,84.30
2023-05-22T01:08:24.951Z,84.90
2023-05-22T01:10:58.946Z,84.70
2023-05-22T01:13:39.262Z,84.50
2023-05-22T01:16:18.791Z,85.60
2023-05-22T01:19:10.189Z,86.60
2023-05-22T01:21:46.390Z,87.10
2023-05-22T01:24:36.187Z,87.90
2023-05-22T01:27:08.649Z,88.60
2023-05-22T01:30:04.214Z,88.50
2023-05-22T01:32:34.776Z,88.80
2023-05-22T01:35:05.374Z,88.60
2023-05-22T01:37:32.892Z,88.70
2023-05-22T01:40:00.493Z,88.00
2023-05-22T01:42:27.787Z,87.50
2023-05-22T01:44:54.589Z,87.70
2023-05-22T01:47:22.816Z,87.40
2023-05-22T01:49:49.985Z,87.40
2023-05-22T01:52:45.333Z,86.00
2023-05-22T01:55:20.272Z,87.70
2023-05-22T01:57:57.132Z,87.60
2023-05-22T02:00:26.477Z,87.40
2023-05-22T02:03:02.842Z,86.00
2023-05-22T02:05:32.780Z,85.70
2023-05-22T02:08:02.127Z,87.40
2023-05-22T02:10:30.404Z,87.70
2023-05-22T02:12:57.776Z,88.00
2023-05-22T02:15:24.649Z,87.80
2023-05-22T02:17:53.325Z,88.20
2023-05-22T02:20:20.330Z,88.30
2023-05-22T02:22:47.827Z,88.00
2023-05-22T02:25:16.917Z,86.40
2023-05-22T02:27:45.792Z,86.80
2023-05-22T02:30:13.738Z,86.60
2023-05-22T02:32:42.960Z,87.30
2023-05-22T02:35:10.282Z,87.70
2023-05-22T02:37:37.416Z,87.20
2023-05-22T02:40:08.075Z,86.90
2023-05-22T02:42:34.943Z,88.20
2023-05-22T02:45:02.470Z,88.80
2023-05-22T02:47:29.970Z,88.60
2023-05-22T02:49:58.052Z,88.50
2023-05-22T02:52:25.216Z,88.90
2023-05-22T02:54:52.056Z,88.70
2023-05-22T02:57:19.061Z,88.50
2023-05-22T02:59:46.105Z,88.90
2023-05-22T03:02:12.954Z,87.80
2023-05-22T03:04:40.908Z,88.20
2023-05-22T03:07:08.062Z,87.60
2023-05-22T03:09:34.975Z,89.60
2023-05-22T03:12:01.839Z,88.00
2023-05-22T03:14:29.268Z,88.60
2023-05-22T03:16:56.517Z,88.00
2023-05-22T03:19:23.766Z,87.60
2023-05-22T03:21:50.981Z,88.20
2023-05-22T03:24:17.969Z,88.40
2023-05-22T03:26:44.838Z,88.30
2023-05-22T03:29:11.788Z,89.70
2023-05-22T03:31:38.631Z,89.30
2023-05-22T03:34:06.078Z,89.20
2023-05-22T03:36:35.965Z,89.30
2023-05-22T03:39:03.649Z,89.20
2023-05-22T03:41:30.904Z,89.20
2023-05-22T03:43:58.333Z,89.60
2023-05-22T03:46:25.647Z,89.80
2023-05-22T03:48:52.648Z,89.80
2023-05-22T03:51:20.396Z,90.00
2023-05-22T03:53:47.541Z,90.20
2023-05-22T03:56:14.415Z,90.20
2023-05-22T03:58:41.292Z,90.30
2023-05-22T04:01:09.902Z,88.20
2023-05-22T04:03:37.850Z,86.80
2023-05-22T04:06:05.776Z,87.50
2023-05-22T04:08:32.848Z,88.10
2023-05-22T04:10:59.885Z,88.60
2023-05-22T04:13:27.193Z,89.00
2023-05-22T04:15:54.125Z,89.50
2023-05-22T04:18:21.069Z,90.20
2023-05-22T04:20:48.135Z,90.80
2023-05-22T04:23:14.998Z,90.40
2023-05-22T04:25:41.852Z,90.50
2023-05-22T04:28:09.284Z,90.20
2023-05-22T04:30:40.233Z,89.60
2023-05-22T04:33:08.450Z,90.30
2023-05-22T04:35:35.434Z,89.80
2023-05-22T04:38:03.674Z,90.00
2023-05-22T04:40:33.692Z,90.30
2023-05-22T04:43:01.554Z,89.90
2023-05-22T04:45:29.141Z,90.00
2023-05-22T04:47:56.753Z,90.90
2023-05-22T04:50:24.015Z,89.90
2023-05-22T04:52:51.042Z,89.90
2023-05-22T04:55:19.156Z,89.70
2023-05-22T04:57:47.269Z,89.60
2023-05-22T05:00:16.876Z,89.60
2023-05-22T05:02:43.846Z,89.50
2023-05-22T05:05:10.757Z,89.80
2023-05-22T05:07:39.133Z,90.10
2023-05-22T05:10:07.394Z,89.90
2023-05-22T05:12:34.588Z,90.00
2023-05-22T05:15:01.665Z,90.50
2023-05-22T05:17:29.045Z,90.70
2023-05-22T05:19:56.104Z,90.10
2023-05-22T05:22:23.439Z,90.20
2023-05-22T05:24:50.412Z,89.90
2023-05-22T05:27:18.046Z,90.10
2023-05-22T05:29:44.995Z,89.50
2023-05-22T05:32:12.989Z,90.20
2023-05-22T05:34:39.881Z,89.50
2023-05-22T05:37:06.802Z,89.40
2023-05-22T05:39:34.138Z,89.90
2023-05-22T05:42:01.214Z,89.90
2023-05-22T05:44:28.640Z,89.70
2023-05-22T05:46:55.541Z,89.90
2023-05-22T05:49:22.550Z,90.30
2023-05-22T05:51:49.954Z,90.70
2023-05-22T05:54:16.789Z,90.30
2023-05-22T05:56:43.850Z,90.40
2023-05-22T05:59:11.485Z,90.10
2023-05-22T06:01:39.808Z,89.80
2023-05-22T06:04:09.032Z,89.50
2023-05-22T06:06:36.411Z,89.10
2023-05-22T06:09:06.182Z,88.30
2023-05-22T06:11:33.696Z,88.20
2023-05-22T06:14:02.873Z,86.70
2023-05-22T06:16:30.022Z,85.90
2023-05-22T06:18:59.172Z,85.60
2023-05-22T06:21:26.150Z,84.30
2023-05-22T06:23:53.165Z,83.80
2023-05-22T06:26:20.269Z,83.80
2023-05-22T06:28:47.378Z,83.30
2023-05-22T06:31:14.386Z,83.60
2023-05-22T06:33:43.299Z,82.50
2023-05-22T06:36:11.666Z,80.70
2023-05-22T06:38:39.257Z,79.90
2023-05-22T06:41:06.487Z,77.50
2023-05-22T06:43:33.532Z,77.90
2023-05-22T06:46:00.489Z,78.10
2023-05-22T06:48:28.321Z,78.30
2023-05-22T06:50:55.682Z,77.40
2023-05-22T06:53:23.898Z,76.80
2023-05-22T06:55:51.115Z,74.70
2023-05-22T06:58:18.678Z,74.60
2023-05-22T07:00:46.279Z,75.20
2023-05-22T07:03:13.447Z,74.80
2023-05-22T07:05:40.580Z,72.70
2023-05-22T07:08:08.455Z,72.20
2023-05-22T07:10:36.482Z,72.50
2023-05-22T07:13:03.907Z,72.40
2023-05-22T07:15:33.687Z,72.00
2023-05-22T07:18:00.638Z,71.70
2023-05-22T07:20:28.277Z,69.50
2023-05-22T07:22:55.733Z,68.10
2023-05-22T07:25:22.617Z,69.10
2023-05-22T07:27:50.750Z,66.70
2023-05-22T07:30:18.764Z,67.40
2023-05-22T07:32:46.108Z,66.70
2023-05-22T07:35:15.967Z,66.40
2023-05-22T07:37:46.208Z,66.40
2023-05-22T07:40:14.070Z,66.00
2023-05-22T07:42:41.726Z,66.50
2023-05-22T07:45:09.435Z,66.40
2023-05-22T07:47:36.969Z,65.90
2023-05-22T07:50:04.659Z,65.90
2023-05-22T07:52:32.813Z,64.60
2023-05-22T07:55:19.561Z,64.30
2023-05-22T07:57:47.400Z,64.70
2023-05-22T08:00:14.799Z,64.90
2023-05-22T08:02:42.721Z,64.00
2023-05-22T08:05:10.736Z,62.70
2023-05-22T08:07:39.472Z,62.40
2023-05-22T08:10:17.794Z,63.60
2023-05-22T08:12:45.474Z,62.70
2023-05-22T08:15:12.562Z,61.00
2023-05-22T08:17:39.594Z,61.20
2023-05-22T08:20:07.584Z,59.10
2023-05-22T08:22:35.302Z,59.60
2023-05-22T08:25:02.442Z,60.10
2023-05-22T08:27:29.537Z,57.90
2023-05-22T08:29:56.480Z,58.40
2023-05-22T08:32:23.395Z,59.10
2023-05-22T08:34:50.525Z,59.80
2023-05-22T08:37:17.541Z,59.00
2023-05-22T08:39:44.441Z,58.00
2023-05-22T08:42:11.453Z,58.10
2023-05-22T08:44:39.131Z,58.10
2023-05-22T08:47:11.316Z,58.70
2023-05-22T08:49:40.018Z,57.50
2023-05-22T08:52:32.928Z,58.00
2023-05-22T08:55:02.442Z,58.00
2023-05-22T08:57:30.183Z,54.50
2023-05-22T08:59:58.316Z,55.70
2023-05-22T09:02:26.208Z,54.70
2023-05-22T09:04:53.177Z,55.10
2023-05-22T09:07:22.071Z,55.80
2023-05-22T09:09:49.751Z,56.40
2023-05-22T09:12:16.857Z,54.80
2023-05-22T09:14:44.688Z,56.50
2023-05-22T09:17:15.396Z,51.90
2023-05-22T09:19:48.534Z,55.10
2023-05-22T09:22:16.609Z,58.40
2023-05-22T09:24:47.017Z,57.00
2023-05-22T09:27:14.004Z,53.80
2023-05-22T09:29:51.280Z,53.00
2023-05-22T09:32:19.737Z,55.60
2023-05-22T09:34:47.054Z,53.20
2023-05-22T09:37:15.157Z,52.30
2023-05-22T09:39:47.065Z,53.00
2023-05-22T09:42:18.006Z,52.70
2023-05-22T09:44:51.828Z,54.90
2023-05-22T09:47:18.852Z,53.50
2023-05-22T09:49:46.228Z,49.10
2023-05-22T09:52:13.164Z,49.00
2023-05-22T09:54:55.178Z,49.50
2023-05-22T09:57:24.747Z,53.90
2023-05-22T09:59:58.369Z,51.30
2023-05-22T10:02:26.912Z,53.00
2023-05-22T10:04:54.744Z,51.80
2023-05-22T10:07:26.829Z,49.50
2023-05-22T10:10:02.146Z,49.90
2023-05-22T10:12:33.690Z,50.00
2023-05-22T10:15:02.646Z,49.20
2023-05-22T10:17:31.677Z,50.50
2023-05-22T10:19:58.887Z,50.40
2023-05-22T10:22:29.109Z,51.10
2023-05-22T10:24:56.299Z,49.10
2023-05-22T10:27:23.192Z,48.70
2023-05-22T10:29:58.593Z,46.60
2023-05-22T10:32:39.920Z,49.20
2023-05-22T10:35:39.071Z,46.50
2023-05-22T10:38:23.032Z,50.30
2023-05-22T10:40:50.883Z,47.70
2023-05-22T10:43:17.887Z,48.80
2023-05-22T10:45:47.074Z,47.70
2023-05-22T10:48:14.397Z,48.50
2023-05-22T10:50:52.857Z,51.10
2023-05-22T10:53:23.900Z,45.80
2023-05-22T10:55:51.693Z,49.60
2023-05-22T10:58:29.257Z,42.50
2023-05-22T11:01:13.709Z,52.90
2023-05-22T11:04:13.374Z,49.60
2023-05-22T11:06:45.766Z,46.60
2023-05-22T11:09:30.223Z,46.20
2023-05-22T11:12:17.151Z,42.40
2023-05-22T11:14:51.351Z,44.00
2023-05-22T11:17:22.492Z,51.50
2023-05-22T11:19:59.262Z,44.00
2023-05-22T11:22:32.169Z,45.30
2023-05-22T11:24:59.770Z,42.00
2023-05-22T11:27:27.081Z,48.80
2023-05-22T11:29:54.781Z,45.30
2023-05-22T11:32:23.652Z,43.70
2023-05-22T11:34:50.673Z,44.10
2023-05-22T11:37:21.528Z,45.00
2023-05-22T11:40:04.470Z,41.70
2023-05-22T11:42:32.487Z,44.90
2023-05-22T11:45:00.116Z,42.70
2023-05-22T11:47:30.079Z,38.90
2023-05-22T11:49:58.256Z,40.80
2023-05-22T11:52:25.598Z,45.10
2023-05-22T11:54:53.086Z,40.50
2023-05-22T11:57:20.795Z,39.40
2023-05-22T11:59:48.478Z,39.60
2023-05-22T12:02:21.530Z,43.50
2023-05-22T12:04:53.738Z,42.10
2023-05-22T12:07:22.460Z,41.00
2023-05-22T12:09:50.561Z,43.80
2023-05-22T12:12:18.361Z,40.30
2023-05-22T12:14:46.172Z,39.00
2023-05-22T12:17:14.491Z,39.80
2023-05-22T12:19:42.089Z,40.20
2023-05-22T12:22:10.216Z,35.20
2023-05-22T12:24:47.208Z,39.20
2023-05-22T12:27:14.957Z,36.70
2023-05-22T12:29:43.053Z,36.20
2023-05-22T12:32:11.661Z,38.50
2023-05-22T12:34:47.044Z,37.10
2023-05-22T12:37:21.270Z,37.30
2023-05-22T12:39:57.277Z,37.20
2023-05-22T12:42:25.589Z,35.60
2023-05-22T12:44:57.012Z,32.80
2023-05-22T12:47:24.881Z,35.10
2023-05-22T12:49:51.980Z,36.20
2023-05-22T12:52:18.926Z,37.40
2023-05-22T12:54:46.410Z,34.10
2023-05-22T12:57:13.412Z,33.30
2023-05-22T12:59:40.934Z,32.60
2023-05-22T13:02:08.119Z,29.70
2023-05-22T13:04:35.223Z,31.10
2023-05-22T13:07:02.205Z,31.30
2023-05-22T13:09:29.276Z,28.40
2023-05-22T13:11:56.477Z,27.00
2023-05-22T13:14:23.372Z,28.50
2023-05-22T13:16:50.158Z,33.60
2023-05-22T13:19:17.108Z,29.40
2023-05-22T13:21:44.155Z,31.00
2023-05-22T13:24:11.116Z,27.60
2023-05-22T13:26:38.000Z,29.00
2023-05-22T13:29:04.938Z,32.30
2023-05-22T13:31:37.178Z,31.90
2023-05-22T13:34:04.907Z,34.20
2023-05-22T13:36:31.942Z,36.40
2023-05-22T13:38:58.839Z,31.20
2023-05-22T13:41:25.811Z,30.00
2023-05-22T13:43:53.926Z,32.30
2023-05-22T13:46:22.001Z,29.20
2023-05-22T13:48:53.819Z,29.60
2023-05-22T13:51:20.732Z,30.80
2023-05-22T13:53:47.534Z,32.30
2023-05-22T13:56:14.737Z,30.30
2023-05-22T13:58:41.638Z,30.90
2023-05-22T14:01:09.858Z,32.50
2023-05-22T14:03:36.751Z,30.60
2023-05-22T14:06:03.894Z,28.80
2023-05-22T14:08:30.743Z,30.50
2023-05-22T14:10:57.735Z,28.10
2023-05-22T14:13:24.568Z,30.00
2023-05-22T14:15:51.382Z,29.20
2023-05-22T14:18:18.328Z,28.00
2023-05-22T14:20:46.267Z,25.80
2023-05-22T14:23:14.109Z,26.60
2023-05-22T14:25:44.475Z,26.70
2023-05-22T14:28:12.192Z,25.90
2023-05-22T14:30:39.269Z,24.60
2023-05-22T14:33:07.224Z,25.00
2023-05-22T14:35:34.216Z,26.40
2023-05-22T14:38:01.752Z,24.70
2023-05-22T14:40:28.772Z,26.30
2023-05-22T14:42:55.757Z,32.10
2023-05-22T14:45:22.861Z,30.60
2023-05-22T14:47:49.964Z,29.10
2023-05-22T14:50:20.160Z,25.20
2023-05-22T14:52:50.622Z,26.30
2023-05-22T14:55:18.022Z,29.30
2023-05-22T14:57:44.965Z,30.60
2023-05-22T15:00:12.770Z,29.40
2023-05-22T15:02:40.103Z,29.10
2023-05-22T15:05:07.836Z,29.60
2023-05-22T15:07:44.059Z,29.30
2023-05-22T15:10:12.859Z,27.60
2023-05-22T15:12:39.802Z,28.60
2023-05-22T15:15:07.164Z,27.70
2023-05-22T15:17:34.166Z,29.20
2023-05-22T15:20:01.326Z,28.90
2023-05-22T15:22:28.477Z,25.90
2023-05-22T15:25:09.198Z,26.60
2023-05-22T15:27:38.354Z,25.20
2023-05-22T15:30:06.609Z,26.70
2023-05-22T15:32:33.611Z,33.80
2023-05-22T15:35:00.691Z,26.60
2023-05-22T15:37:32.018Z,30.30
2023-05-22T15:40:01.453Z,29.80
2023-05-22T15:42:29.652Z,29.50
2023-05-22T15:44:58.206Z,28.00
2023-05-22T15:47:25.394Z,26.20
2023-05-22T15:49:52.908Z,26.50
2023-05-22T15:52:22.834Z,27.50
2023-05-22T15:54:50.716Z,25.50
2023-05-22T15:57:17.691Z,29.80
2023-05-22T15:59:47.428Z,31.70
2023-05-22T16:02:14.451Z,26.10
2023-05-22T16:04:41.430Z,31.00
2023-05-22T16:07:08.363Z,31.10
2023-05-22T16:09:36.118Z,33.50
2023-05-22T16:12:04.152Z,33.30
2023-05-22T16:14:31.439Z,29.60
2023-05-22T16:16:58.330Z,33.20
2023-05-22T16:19:25.317Z,31.50
2023-05-22T16:21:52.234Z,38.10
2023-05-22T16:24:19.062Z,33.60
2023-05-22T16:26:45.935Z,30.40
2023-05-22T16:29:13.088Z,32.20
2023-05-22T16:31:40.016Z,35.10
2023-05-22T16:34:07.066Z,33.30
2023-05-22T16:36:33.875Z,37.70
2023-05-22T16:39:00.966Z,31.10
2023-05-22T16:41:28.141Z,30.50
2023-05-22T16:43:55.058Z,27.90
2023-05-22T16:46:22.267Z,31.80
2023-05-22T16:48:50.358Z,31.20
2023-05-22T16:51:17.441Z,34.00
2023-05-22T16:53:44.380Z,34.40
2023-05-22T16:56:11.381Z,33.60
2023-05-22T16:58:38.836Z,31.10
2023-05-22T17:01:08.606Z,33.40
2023-05-22T17:03:35.939Z,31.20
2023-05-22T17:06:03.221Z,27.90
2023-05-22T17:08:30.582Z,30.10
2023-05-22T17:10:57.495Z,30.70
2023-05-22T17:13:24.407Z,30.60
2023-05-22T17:15:51.980Z,31.40
2023-05-22T17:18:19.904Z,35.10
2023-05-22T17:20:50.652Z,33.90
2023-05-22T17:23:17.819Z,42.40
2023-05-22T17:25:46.669Z,47.10
2023-05-22T17:28:14.969Z,53.00
2023-05-22T17:30:43.267Z,53.40
2023-05-22T17:33:10.973Z,52.70
2023-05-22T17:35:37.898Z,54.50
2023-05-22T17:38:04.997Z,55.80
2023-05-22T17:40:44.025Z,53.20
2023-05-22T17:43:12.159Z,59.90
2023-05-22T17:45:39.429Z,59.50
2023-05-22T17:48:07.717Z,58.50
2023-05-22T17:50:34.718Z,58.40
2023-05-22T17:53:01.615Z,59.80
2023-05-22T17:55:28.814Z,62.50
2023-05-22T17:57:56.097Z,63.00
2023-05-22T18:00:23.153Z,63.80
2023-05-22T18:02:50.486Z,64.70
2023-05-22T18:05:17.532Z,63.90
2023-05-22T18:07:44.404Z,63.70
2023-05-22T18:10:11.401Z,63.20
2023-05-22T18:12:38.700Z,59.80
2023-05-22T18:15:08.478Z,62.80
2023-05-22T18:17:35.696Z,64.30
2023-05-22T18:20:04.378Z,65.20
2023-05-22T18:22:31.486Z,63.60
2023-05-22T18:24:58.323Z,62.40
2023-05-22T18:27:25.431Z,64.00
2023-05-22T18:29:52.279Z,67.00
2023-05-22T18:32:19.179Z,68.60
2023-05-22T18:34:46.489Z,68.40
2023-05-22T18:37:14.015Z,68.80
2023-05-22T18:39:41.114Z,68.90
2023-05-22T18:42:08.212Z,68.80
2023-05-22T18:44:35.157Z,68.80
2023-05-22T18:47:02.059Z,68.00
2023-05-22T18:49:29.381Z,69.70
2023-05-22T18:51:56.220Z,70.10
2023-05-22T18:54:23.323Z,72.10
2023-05-22T18:56:50.854Z,71.80
2023-05-22T18:59:17.924Z,72.80
2023-05-22T19:01:45.503Z,73.30
2023-05-22T19:04:12.385Z,73.80
2023-05-22T19:06:42.176Z,73.70
2023-05-22T19:09:10.037Z,73.30
2023-05-22T19:11:37.052Z,73.10
2023-05-22T19:14:04.008Z,73.50
2023-05-22T19:16:31.003Z,73.70
2023-05-22T19:18:57.921Z,73.90
2023-05-22T19:21:26.327Z,72.90
2023-05-22T19:23:53.221Z,72.80
2023-05-22T19:26:20.180Z,73.10
2023-05-22T19:28:47.100Z,73.50
2023-05-22T19:31:14.045Z,74.90
2023-05-22T19:33:40.931Z,75.30
2023-05-22T19:36:07.873Z,75.30
2023-05-22T19:38:34.824Z,76.00
2023-05-22T19:41:01.698Z,75.80
2023-05-22T19:43:31.282Z,76.10
2023-05-22T19:45:58.452Z,76.20
2023-05-22T19:48:25.696Z,76.80
2023-05-22T19:50:52.739Z,76.80
2023-05-22T19:53:19.575Z,76.90
2023-05-22T19:55:46.544Z,77.10
2023-05-22T19:58:13.658Z,77.20
2023-05-22T20:00:41.113Z,77.30
2023-05-22T20:03:08.419Z,77.20
2023-05-22T20:05:35.524Z,76.90
2023-05-22T20:08:02.424Z,76.80
2023-05-22T20:10:30.433Z,78.10
2023-05-22T20:12:59.307Z,78.80
2023-05-22T20:15:26.142Z,79.60
2023-05-22T20:17:53.539Z,78.20
2023-05-22T20:20:20.887Z,77.80
2023-05-22T20:22:47.838Z,77.70
2023-05-22T20:25:14.740Z,77.60
2023-05-22T20:27:41.625Z,78.10
2023-05-22T20:30:11.436Z,77.20
2023-05-22T20:32:39.306Z,77.10
2023-05-22T20:35:07.251Z,77.50
2023-05-22T20:37:34.927Z,77.20
2023-05-22T20:40:09.429Z,77.60
2023-05-22T20:42:37.649Z,77.70
2023-05-22T20:45:05.633Z,78.20
2023-05-22T20:47:34.664Z,77.90
2023-05-22T20:50:01.940Z,78.10
2023-05-22T20:52:32.044Z,78.80
2023-05-22T20:54:59.014Z,79.00
2023-05-22T20:57:25.838Z,79.50
2023-05-22T20:59:54.158Z,79.20
2023-05-22T21:02:21.140Z,80.20
2023-05-22T21:04:48.026Z,80.50
2023-05-22T21:07:14.834Z,81.10
2023-05-22T21:09:41.886Z,81.30
2023-05-22T21:12:08.743Z,80.90
2023-05-22T21:14:35.640Z,81.70
2023-05-22T21:17:02.511Z,80.80
2023-05-22T21:19:29.617Z,80.50
2023-05-22T21:21:56.497Z,81.30
2023-05-22T21:24:23.367Z,80.80
2023-05-22T21:26:50.266Z,81.20
2023-05-22T21:29:17.104Z,81.50
2023-05-22T21:31:43.959Z,81.90
2023-05-22T21:34:10.923Z,82.30
2023-05-22T21:36:37.874Z,81.90
2023-05-22T21:39:04.690Z,81.70
2023-05-22T21:41:31.507Z,81.50
2023-05-22T21:43:58.421Z,81.60
2023-05-22T21:46:25.329Z,81.20
2023-05-22T21:48:53.652Z,81.00
2023-05-22T21:51:20.651Z,81.00
2023-05-22T21:53:47.590Z,80.30
2023-05-22T21:56:14.472Z,81.30
2023-05-22T21:58:41.294Z,81.10
2023-05-22T22:01:08.202Z,81.70
2023-05-22T22:03:35.187Z,82.40
2023-05-22T22:06:02.166Z,83.40
2023-05-22T22:08:29.430Z,83.50
2023-05-22T22:10:58.272Z,84.00
2023-05-22T22:13:25.185Z,84.50
2023-05-22T22:15:53.410Z,85.00
2023-05-22T22:18:20.524Z,84.10
2023-05-22T22:20:50.180Z,85.00
2023-05-22T22:23:17.188Z,84.20
2023-05-22T22:25:44.003Z,84.70
2023-05-22T22:28:11.376Z,82.80
2023-05-22T22:30:38.414Z,83.70
2023-05-22T22:33:05.429Z,83.80
2023-05-22T22:35:32.388Z,84.00
2023-05-22T22:37:59.242Z,83.60
2023-05-22T22:40:26.772Z,83.90
2023-05-22T22:42:53.958Z,83.40
2023-05-22T22:45:21.079Z,82.90
2023-05-22T22:47:48.262Z,83.40
2023-05-22T22:50:15.155Z,83.40
2023-05-22T22:52:45.519Z,83.00
2023-05-22T22:55:13.407Z,82.80
2023-05-22T22:57:43.297Z,81.00
2023-05-22T23:00:13.264Z,82.20
2023-05-22T23:02:40.795Z,83.30
2023-05-22T23:05:08.561Z,84.30
2023-05-22T23:07:35.773Z,85.60
2023-05-22T23:10:02.834Z,86.00
2023-05-22T23:12:32.996Z,85.90
2023-05-22T23:15:00.030Z,86.00
2023-05-22T23:17:26.869Z,86.50
2023-05-22T23:19:53.724Z,86.30
2023-05-22T23:22:20.543Z,86.00
2023-05-22T23:24:47.357Z,85.60
2023-05-22T23:27:14.716Z,85.20
2023-05-22T23:29:41.536Z,84.80
2023-05-22T23:32:08.414Z,84.60
2023-05-22T23:34:35.280Z,84.70
2023-05-22T23:37:02.088Z,84.60
2023-05-22T23:39:28.993Z,83.70
2023-05-22T23:41:55.824Z,84.40
2023-05-22T23:44:22.727Z,84.00
2023-05-22T23:46:50.003Z,83.50
2023-05-22T23:49:16.892Z,83.50
2023-05-22T23:51:43.701Z,84.20
2023-05-22T23:54:11.276Z,85.40
2023-05-22T23:56:38.122Z,85.20
2023-05-22T23:59:05.032Z,86.30
